Time;durP1;ratioP1;P1;durP2;ratioP2;P2;SDS_P1;SDS_P2;PMS_P1;PMS_P2;Temp;Humidity;BMP_temperature;BMP_pressure;BME280_temperature;BME280_humidity;BME280_pressure;Samples;Min_cycle;Max_cycle;Signal;HPM_P1;HPM_P2
2022/03/05 00:02:02;;;;;;;6.43;5.93;;;;;;;;;;4976923;28;20258;-50
2022/03/05 00:04:29;;;;;;;6.85;6.18;;;;;;;;;;4977062;28;20211;-50
2022/03/05 00:06:56;;;;;;;6.60;6.00;;;;;;;;;;4976819;28;20200;-49
2022/03/05 00:09:24;;;;;;;6.70;6.10;;;;;;;;;;4976940;28;20259;-49
2022/03/05 00:11:51;;;;;;;6.72;6.18;;;;;;;;;;4977527;28;20207;-49
2022/03/05 00:14:20;;;;;;;6.35;5.85;;;;;;;;;;4977065;28;20208;-49
2022/03/05 00:16:47;;;;;;;6.18;5.68;;;;;;;;;;4976394;28;20212;-49
2022/03/05 00:19:14;;;;;;;5.55;5.15;;;;;;;;;;4976794;28;20274;-50
2022/03/05 00:21:42;;;;;;;6.65;6.15;;;;;;;;;;4977409;28;20208;-49
2022/03/05 00:24:09;;;;;;;5.80;5.30;;;;;;;;;;4976675;28;20214;-49
2022/03/05 00:26:37;;;;;;;6.35;5.85;;;;;;;;;;4976946;28;20695;-49
2022/03/05 00:29:04;;;;;;;5.35;4.93;;;;;;;;;;4976709;28;20224;-49
2022/03/05 00:31:33;;;;;;;6.07;5.57;;;;;;;;;;4977085;28;20207;-50
2022/03/05 00:34:00;;;;;;;5.78;5.38;;;;;;;;;;4979972;28;20204;-49
2022/03/05 00:36:30;;;;;;;6.00;5.50;;;;;;;;;;4980123;28;20208;-50
2022/03/05 00:38:57;;;;;;;5.63;5.18;;;;;;;;;;4979723;28;20206;-49
2022/03/05 00:41:24;;;;;;;5.95;5.35;;;;;;;;;;4980286;28;20282;-49
2022/03/05 00:43:52;;;;;;;5.82;5.32;;;;;;;;;;4978971;28;20212;-50
2022/03/05 00:46:19;;;;;;;5.43;4.93;;;;;;;;;;4979535;28;20215;-49
2022/03/05 00:48:48;;;;;;;5.20;4.80;;;;;;;;;;4979281;28;20228;-50
2022/03/05 00:51:15;;;;;;;5.63;5.13;;;;;;;;;;4980154;28;20211;-49
2022/03/05 00:53:43;;;;;;;5.25;4.85;;;;;;;;;;4980016;28;20291;-49
2022/03/05 00:56:10;;;;;;;5.43;5.00;;;;;;;;;;4980192;28;20270;-49
2022/03/05 00:58:37;;;;;;;5.47;5.03;;;;;;;;;;4979518;28;20208;-49
2022/03/05 01:01:05;;;;;;;5.45;4.95;;;;;;;;;;4979195;28;20266;-49
2022/03/05 01:03:32;;;;;;;5.60;5.10;;;;;;;;;;4978936;28;20211;-49
2022/03/05 01:06:01;;;;;;;5.97;5.07;;;;;;;;;;4979949;28;20556;-49
2022/03/05 01:08:28;;;;;;;5.28;4.82;;;;;;;;;;4979675;28;20223;-49
2022/03/05 01:10:56;;;;;;;5.30;4.90;;;;;;;;;;4980273;28;20435;-49
2022/03/05 01:13:23;;;;;;;5.70;5.20;;;;;;;;;;4979592;28;20211;-49
2022/03/05 01:15:50;;;;;;;5.28;4.88;;;;;;;;;;4979342;28;20215;-49
2022/03/05 01:18:17;;;;;;;5.07;4.68;;;;;;;;;;4978306;28;20208;-49
2022/03/05 01:20:45;;;;;;;5.28;4.88;;;;;;;;;;4979222;28;20300;-49
2022/03/05 01:23:14;;;;;;;5.00;4.60;;;;;;;;;;4979044;28;20275;-49
2022/03/05 01:25:42;;;;;;;5.03;4.63;;;;;;;;;;4979093;28;20548;-49
2022/03/05 01:28:09;;;;;;;5.10;4.60;;;;;;;;;;4978832;28;20266;-49
2022/03/05 01:30:36;;;;;;;5.43;4.97;;;;;;;;;;4979504;28;20607;-49
2022/03/05 01:33:04;;;;;;;5.07;4.68;;;;;;;;;;4979259;28;20203;-49
2022/03/05 01:35:31;;;;;;;5.35;4.95;;;;;;;;;;4979547;28;20710;-50
2022/03/05 01:37:59;;;;;;;5.25;4.85;;;;;;;;;;4978922;28;20215;-49
2022/03/05 01:40:27;;;;;;;5.18;4.72;;;;;;;;;;4993163;28;20213;-49
2022/03/05 01:42:55;;;;;;;5.60;5.13;;;;;;;;;;4997448;28;20273;-49
2022/03/05 01:45:22;;;;;;;5.40;4.90;;;;;;;;;;4979028;28;20247;-49
2022/03/05 01:47:50;;;;;;;5.45;5.00;;;;;;;;;;4978773;28;20215;-49
2022/03/05 01:50:17;;;;;;;5.53;5.05;;;;;;;;;;4979144;28;20286;-49
2022/03/05 01:52:45;;;;;;;4.85;4.45;;;;;;;;;;4979013;28;20270;-49
2022/03/05 01:55:13;;;;;;;4.95;4.55;;;;;;;;;;4978418;28;20270;-49
2022/03/05 01:57:41;;;;;;;4.85;4.45;;;;;;;;;;4977996;28;20274;-49
2022/03/05 02:00:10;;;;;;;5.20;4.80;;;;;;;;;;4977694;28;20196;-49
2022/03/05 02:02:37;;;;;;;5.00;4.60;;;;;;;;;;4978562;28;20266;-50
2022/03/05 02:05:05;;;;;;;5.13;4.72;;;;;;;;;;4977933;28;20204;-49
2022/03/05 02:07:32;;;;;;;5.13;4.70;;;;;;;;;;4977884;28;20204;-49
2022/03/05 02:09:59;;;;;;;4.85;4.45;;;;;;;;;;4977821;28;20228;-49
2022/03/05 02:12:29;;;;;;;4.50;4.10;;;;;;;;;;4978478;28;20207;-49
2022/03/05 02:14:58;;;;;;;5.10;4.60;;;;;;;;;;4977568;28;20204;-49
2022/03/05 02:17:26;;;;;;;5.18;4.68;;;;;;;;;;4978704;28;20250;-49
2022/03/05 02:19:53;;;;;;;5.50;5.00;;;;;;;;;;4977591;28;20195;-49
2022/03/05 02:22:21;;;;;;;4.50;4.10;;;;;;;;;;4978375;28;20543;-49
2022/03/05 02:24:49;;;;;;;5.00;4.60;;;;;;;;;;4977684;28;20208;-49
2022/03/05 02:27:16;;;;;;;4.75;4.35;;;;;;;;;;4977716;28;20237;-49
2022/03/05 02:29:44;;;;;;;4.70;4.30;;;;;;;;;;4977598;28;20293;-49
2022/03/05 02:32:12;;;;;;;4.90;4.50;;;;;;;;;;4978020;28;20204;-49
2022/03/05 02:34:39;;;;;;;5.07;4.57;;;;;;;;;;4977675;28;20204;-49
2022/03/05 02:37:06;;;;;;;5.18;4.70;;;;;;;;;;4977755;28;20302;-49
2022/03/05 02:39:35;;;;;;;4.65;4.25;;;;;;;;;;4977748;28;20537;-49
2022/03/05 02:42:02;;;;;;;4.63;4.22;;;;;;;;;;4978204;28;20267;-49
2022/03/05 02:44:29;;;;;;;5.20;4.70;;;;;;;;;;4977693;28;20250;-49
2022/03/05 02:46:58;;;;;;;4.78;4.38;;;;;;;;;;4978898;28;20474;-49
2022/03/05 02:49:25;;;;;;;4.88;4.38;;;;;;;;;;4978263;28;20330;-49
2022/03/05 02:51:53;;;;;;;5.20;4.80;;;;;;;;;;4979318;28;20285;-49
2022/03/05 02:54:20;;;;;;;5.28;4.88;;;;;;;;;;4978107;28;20212;-50
2022/03/05 02:56:49;;;;;;;5.30;4.80;;;;;;;;;;4977513;28;20203;-49
2022/03/05 02:59:17;;;;;;;5.10;4.60;;;;;;;;;;4977809;28;20204;-49
2022/03/05 03:01:45;;;;;;;5.10;4.70;;;;;;;;;;4978941;28;20208;-49
2022/03/05 03:04:12;;;;;;;4.72;4.32;;;;;;;;;;4978039;28;20215;-49
2022/03/05 03:06:39;;;;;;;4.68;4.28;;;;;;;;;;4978520;28;20343;-49
2022/03/05 03:09:07;;;;;;;4.53;4.13;;;;;;;;;;4978341;28;20219;-50
2022/03/05 03:11:35;;;;;;;5.25;4.75;;;;;;;;;;4978642;28;20207;-49
2022/03/05 03:14:04;;;;;;;5.07;4.68;;;;;;;;;;4977750;28;20270;-49
2022/03/05 03:16:32;;;;;;;5.22;4.75;;;;;;;;;;4977979;28;20211;-49
2022/03/05 03:18:59;;;;;;;5.40;4.90;;;;;;;;;;4978268;28;20274;-49
2022/03/05 03:21:26;;;;;;;5.18;4.68;;;;;;;;;;4978072;28;20204;-49
2022/03/05 03:23:53;;;;;;;5.00;4.60;;;;;;;;;;4978248;28;20203;-49
2022/03/05 03:26:21;;;;;;;5.30;4.80;;;;;;;;;;4978102;28;20266;-49
2022/03/05 03:28:48;;;;;;;5.30;4.80;;;;;;;;;;4978132;28;20211;-49
2022/03/05 03:31:17;;;;;;;4.72;4.32;;;;;;;;;;4978054;28;20207;-49
2022/03/05 03:33:44;;;;;;;5.40;4.90;;;;;;;;;;4977697;28;20203;-49
2022/03/05 03:36:12;;;;;;;4.95;4.55;;;;;;;;;;4978523;28;20306;-49
2022/03/05 03:38:40;;;;;;;5.25;4.75;;;;;;;;;;4978300;28;20204;-49
2022/03/05 03:41:07;;;;;;;5.47;5.07;;;;;;;;;;4978022;28;20208;-49
2022/03/05 03:43:34;;;;;;;5.35;4.85;;;;;;;;;;4978321;28;20203;-49
2022/03/05 03:46:02;;;;;;;5.38;4.97;;;;;;;;;;4977377;28;20725;-49
2022/03/05 03:48:30;;;;;;;4.97;4.53;;;;;;;;;;4977725;28;20520;-49
2022/03/05 03:50:58;;;;;;;5.40;4.90;;;;;;;;;;4977735;28;20560;-49
2022/03/05 03:53:25;;;;;;;5.63;5.13;;;;;;;;;;4977920;28;20583;-49
2022/03/05 03:55:52;;;;;;;5.57;5.07;;;;;;;;;;4977744;28;20204;-49
2022/03/05 03:58:20;;;;;;;5.00;4.60;;;;;;;;;;4977995;28;20203;-49
2022/03/05 04:00:47;;;;;;;5.80;5.30;;;;;;;;;;4978096;28;20204;-49
2022/03/05 04:03:14;;;;;;;5.85;5.35;;;;;;;;;;4977788;28;20208;-49
2022/03/05 04:05:43;;;;;;;5.40;4.95;;;;;;;;;;4977038;28;20208;-49
2022/03/05 04:10:55;;;;;;;5.40;4.90;;;;;;;;;;4981529;28;20265;-49
2022/03/05 04:13:23;;;;;;;5.55;5.05;;;;;;;;;;4981847;28;20278;-49
2022/03/05 04:15:50;;;;;;;5.57;5.07;;;;;;;;;;4981158;28;20203;-49
2022/03/05 04:18:18;;;;;;;5.93;5.32;;;;;;;;;;4981376;28;20282;-49
2022/03/05 04:20:47;;;;;;;5.15;4.70;;;;;;;;;;4980790;28;20242;-49
2022/03/05 04:23:14;;;;;;;5.90;5.30;;;;;;;;;;4981798;28;20659;-49
2022/03/05 04:25:41;;;;;;;5.57;5.00;;;;;;;;;;4981163;28;20204;-49
2022/03/05 04:28:09;;;;;;;5.85;5.32;;;;;;;;;;4981058;28;20211;-49
2022/03/05 04:30:36;;;;;;;5.82;5.22;;;;;;;;;;4980813;28;20290;-49
2022/03/05 04:33:04;;;;;;;5.78;5.28;;;;;;;;;;4981267;28;20274;-49
2022/03/05 04:35:31;;;;;;;6.13;5.60;;;;;;;;;;4981019;28;20211;-49
2022/03/05 04:37:59;;;;;;;5.97;5.47;;;;;;;;;;4980694;28;20284;-49
2022/03/05 04:40:27;;;;;;;5.70;5.20;;;;;;;;;;4980721;28;20534;-49
2022/03/05 04:42:54;;;;;;;5.95;5.45;;;;;;;;;;4981264;28;20553;-49
2022/03/05 04:45:22;;;;;;;5.65;5.18;;;;;;;;;;4980932;28;20600;-49
2022/03/05 04:47:49;;;;;;;5.95;5.38;;;;;;;;;;4981207;28;20262;-49
2022/03/05 04:50:16;;;;;;;5.72;5.20;;;;;;;;;;4980955;28;20302;-48
2022/03/05 04:52:44;;;;;;;5.93;5.43;;;;;;;;;;4980993;28;20207;-49
2022/03/05 04:55:12;;;;;;;5.82;5.32;;;;;;;;;;4980161;28;20200;-49
2022/03/05 04:57:39;;;;;;;5.63;5.13;;;;;;;;;;4980553;28;20204;-49
2022/03/05 05:00:09;;;;;;;5.50;5.00;;;;;;;;;;4979975;28;20267;-49
2022/03/05 05:02:36;;;;;;;6.10;5.50;;;;;;;;;;4980694;28;20294;-49
2022/03/05 05:05:05;;;;;;;5.88;5.32;;;;;;;;;;4980151;28;20212;-49
2022/03/05 05:07:33;;;;;;;5.35;4.85;;;;;;;;;;4980387;28;20576;-49
2022/03/05 05:10:00;;;;;;;5.63;5.13;;;;;;;;;;4980040;28;20235;-49
2022/03/05 05:12:29;;;;;;;5.70;5.20;;;;;;;;;;4980524;28;20207;-49
2022/03/05 05:14:56;;;;;;;5.78;5.28;;;;;;;;;;4979882;28;20208;-49
2022/03/05 05:17:23;;;;;;;6.68;5.60;;;;;;;;;;4979750;28;20204;-49
2022/03/05 05:19:50;;;;;;;6.07;5.47;;;;;;;;;;4979571;28;20208;-49
2022/03/05 05:22:17;;;;;;;6.03;5.43;;;;;;;;;;4980524;28;20343;-49
2022/03/05 05:24:45;;;;;;;5.78;5.28;;;;;;;;;;4979868;28;20211;-49
2022/03/05 05:27:13;;;;;;;5.88;5.28;;;;;;;;;;4979880;28;20576;-49
2022/03/05 05:29:41;;;;;;;5.70;5.20;;;;;;;;;;4980009;28;20235;-49
2022/03/05 05:32:10;;;;;;;5.88;5.28;;;;;;;;;;4979970;28;20207;-49
2022/03/05 05:34:37;;;;;;;6.10;5.50;;;;;;;;;;4980211;28;20266;-49
2022/03/05 05:37:05;;;;;;;6.28;5.68;;;;;;;;;;4980210;28;20247;-49
2022/03/05 05:39:32;;;;;;;5.72;5.22;;;;;;;;;;4980222;28;20200;-49
2022/03/05 05:42:00;;;;;;;6.05;5.45;;;;;;;;;;4979687;28;20212;-49
2022/03/05 05:44:28;;;;;;;6.07;5.57;;;;;;;;;;4978797;28;20244;-49
2022/03/05 05:46:56;;;;;;;5.75;5.22;;;;;;;;;;4979564;28;20262;-49
2022/03/05 05:49:24;;;;;;;5.85;5.25;;;;;;;;;;4979546;28;20229;-49
2022/03/05 05:51:51;;;;;;;5.32;4.82;;;;;;;;;;4980162;28;20647;-49
2022/03/05 05:54:18;;;;;;;6.00;5.43;;;;;;;;;;4979662;28;20254;-49
2022/03/05 05:56:46;;;;;;;5.80;5.22;;;;;;;;;;4979310;28;20507;-49
2022/03/05 05:59:13;;;;;;;5.97;5.47;;;;;;;;;;4979340;28;20274;-49
2022/03/05 06:01:41;;;;;;;6.95;6.25;;;;;;;;;;4979058;28;20199;-49
2022/03/05 06:04:10;;;;;;;6.13;5.53;;;;;;;;;;4979626;28;20207;-49
2022/03/05 06:06:37;;;;;;;6.18;5.57;;;;;;;;;;4979445;28;20211;-49
2022/03/05 06:09:04;;;;;;;5.78;5.28;;;;;;;;;;4979463;28;20266;-49
2022/03/05 06:11:32;;;;;;;5.60;5.10;;;;;;;;;;4979093;28;20232;-49
2022/03/05 06:13:59;;;;;;;5.50;5.00;;;;;;;;;;4978759;28;20282;-49
2022/03/05 06:16:26;;;;;;;6.28;5.68;;;;;;;;;;4976050;28;20611;-49
2022/03/05 06:18:54;;;;;;;6.32;5.72;;;;;;;;;;4978190;28;20203;-49
2022/03/05 06:21:23;;;;;;;5.78;5.28;;;;;;;;;;4978480;28;20208;-49
2022/03/05 06:23:51;;;;;;;5.82;5.28;;;;;;;;;;4977937;28;20203;-49
2022/03/05 06:26:18;;;;;;;5.55;5.05;;;;;;;;;;4977704;28;20294;-49
2022/03/05 06:28:45;;;;;;;5.65;5.15;;;;;;;;;;4978318;28;20515;-49
2022/03/05 06:31:12;;;;;;;5.63;5.10;;;;;;;;;;4976362;28;20228;-49
2022/03/05 06:33:40;;;;;;;5.68;5.18;;;;;;;;;;4977718;28;20247;-49
2022/03/05 06:36:07;;;;;;;5.65;5.15;;;;;;;;;;4977251;28;20216;-49
2022/03/05 06:38:36;;;;;;;5.43;4.93;;;;;;;;;;4977525;28;20216;-49
2022/03/05 06:41:03;;;;;;;5.70;5.20;;;;;;;;;;4977790;28;20212;-49
2022/03/05 06:43:31;;;;;;;5.78;5.20;;;;;;;;;;4977959;28;20212;-49
2022/03/05 06:45:58;;;;;;;5.63;5.13;;;;;;;;;;4975322;28;20293;-49
2022/03/05 06:48:25;;;;;;;5.55;5.05;;;;;;;;;;4978036;28;20208;-49
2022/03/05 06:50:53;;;;;;;6.22;5.63;;;;;;;;;;4960778;28;20223;-49
2022/03/05 06:53:20;;;;;;;6.18;5.57;;;;;;;;;;4977950;28;20207;-49
2022/03/05 06:55:49;;;;;;;5.85;5.25;;;;;;;;;;4977617;28;20258;-49
2022/03/05 06:58:17;;;;;;;5.88;5.32;;;;;;;;;;4977695;28;20777;-50
2022/03/05 07:00:45;;;;;;;6.18;5.57;;;;;;;;;;4977011;28;20204;-49
2022/03/05 07:03:12;;;;;;;5.70;5.10;;;;;;;;;;4977387;28;20211;-49
2022/03/05 07:05:40;;;;;;;5.95;5.35;;;;;;;;;;4976968;28;20240;-49
2022/03/05 07:08:07;;;;;;;6.20;5.60;;;;;;;;;;4977259;28;20266;-49
2022/03/05 07:10:34;;;;;;;5.60;5.10;;;;;;;;;;4976763;28;20511;-49
2022/03/05 07:13:03;;;;;;;5.88;5.28;;;;;;;;;;4977771;28;20204;-49
2022/03/05 07:15:30;;;;;;;5.78;5.28;;;;;;;;;;4976602;28;20204;-49
2022/03/05 07:17:57;;;;;;;5.90;5.40;;;;;;;;;;4977480;28;20452;-49
2022/03/05 07:20:24;;;;;;;5.68;5.18;;;;;;;;;;4977540;28;20203;-49
2022/03/05 07:22:52;;;;;;;6.20;5.60;;;;;;;;;;4977443;28;20270;-49
2022/03/05 07:25:19;;;;;;;5.90;5.40;;;;;;;;;;4977468;28;20211;-49
2022/03/05 07:27:46;;;;;;;5.65;5.15;;;;;;;;;;4977660;28;20211;-49
2022/03/05 07:30:15;;;;;;;6.15;5.55;;;;;;;;;;4977369;28;20236;-49
2022/03/05 07:32:44;;;;;;;5.75;5.25;;;;;;;;;;4977422;28;20204;-48
2022/03/05 07:35:11;;;;;;;5.85;5.35;;;;;;;;;;4976980;28;20294;-49
2022/03/05 07:37:39;;;;;;;5.28;4.78;;;;;;;;;;4977793;28;20270;-49
2022/03/05 07:40:06;;;;;;;5.57;5.07;;;;;;;;;;4977539;28;20199;-49
2022/03/05 07:42:34;;;;;;;5.40;4.90;;;;;;;;;;4979453;28;20263;-49
2022/03/05 07:45:01;;;;;;;5.72;5.22;;;;;;;;;;4980725;28;20650;-49
2022/03/05 07:47:30;;;;;;;6.32;5.72;;;;;;;;;;4981629;28;20207;-49
2022/03/05 07:49:57;;;;;;;6.00;5.47;;;;;;;;;;4980991;28;20270;-49
2022/03/05 07:52:24;;;;;;;5.53;5.03;;;;;;;;;;4980816;28;20266;-49
2022/03/05 07:54:51;;;;;;;5.43;4.93;;;;;;;;;;4980005;28;20511;-49
2022/03/05 07:57:19;;;;;;;6.05;5.55;;;;;;;;;;4980415;28;20200;-49
2022/03/05 07:59:46;;;;;;;5.63;5.13;;;;;;;;;;4980453;28;20211;-49
2022/03/05 08:02:15;;;;;;;5.45;4.95;;;;;;;;;;4980802;28;20572;-49
2022/03/05 08:04:44;;;;;;;5.65;5.15;;;;;;;;;;4980680;28;20603;-49
2022/03/05 08:07:12;;;;;;;5.63;5.13;;;;;;;;;;4980741;28;20219;-49
2022/03/05 08:09:40;;;;;;;5.32;4.82;;;;;;;;;;4980303;28;20218;-48
2022/03/05 08:12:08;;;;;;;5.72;5.22;;;;;;;;;;4980476;28;20227;-49
2022/03/05 08:14:36;;;;;;;5.53;5.03;;;;;;;;;;4980525;28;20207;-49
2022/03/05 08:17:03;;;;;;;5.50;5.00;;;;;;;;;;4979938;28;20211;-49
2022/03/05 08:19:30;;;;;;;5.30;4.80;;;;;;;;;;4964896;28;20275;-49
2022/03/05 08:21:59;;;;;;;5.82;5.32;;;;;;;;;;4980554;28;20199;-49
2022/03/05 08:24:26;;;;;;;5.60;5.10;;;;;;;;;;4980295;28;20285;-49
2022/03/05 08:26:53;;;;;;;6.00;5.32;;;;;;;;;;4980317;28;20586;-49
2022/03/05 08:29:21;;;;;;;5.90;5.40;;;;;;;;;;4979678;28;20546;-49
2022/03/05 08:31:48;;;;;;;5.40;4.90;;;;;;;;;;4980359;28;20244;-49
2022/03/05 08:34:15;;;;;;;6.22;5.63;;;;;;;;;;4980266;28;20266;-49
2022/03/05 08:36:42;;;;;;;5.25;4.75;;;;;;;;;;4979874;28;20212;-49
2022/03/05 08:39:11;;;;;;;6.05;5.50;;;;;;;;;;4979937;28;20204;-49
2022/03/05 08:41:39;;;;;;;5.78;5.28;;;;;;;;;;4979739;28;20204;-49
2022/03/05 08:44:06;;;;;;;5.70;5.10;;;;;;;;;;4979571;28;20266;-49
2022/03/05 08:46:33;;;;;;;5.45;4.95;;;;;;;;;;4979226;28;20216;-49
2022/03/05 08:49:01;;;;;;;5.57;5.07;;;;;;;;;;4978672;28;20669;-49
2022/03/05 08:51:28;;;;;;;5.32;4.82;;;;;;;;;;4963228;28;20635;-49
2022/03/05 08:53:56;;;;;;;5.65;5.15;;;;;;;;;;4977593;28;20553;-49
2022/03/05 08:56:27;;;;;;;5.68;5.18;;;;;;;;;;4977928;28;20211;-49
2022/03/05 08:58:54;;;;;;;5.22;4.72;;;;;;;;;;4978694;28;20294;-49
2022/03/05 09:01:21;;;;;;;5.68;5.18;;;;;;;;;;4978021;28;20208;-49
2022/03/05 09:03:49;;;;;;;5.35;4.85;;;;;;;;;;4978060;28;20216;-49
2022/03/05 09:06:16;;;;;;;5.22;4.72;;;;;;;;;;4978173;28;20203;-49
2022/03/05 09:08:44;;;;;;;5.30;4.80;;;;;;;;;;4978038;28;20267;-49
2022/03/05 09:11:11;;;;;;;5.57;5.07;;;;;;;;;;4977879;28;20235;-49
2022/03/05 09:13:40;;;;;;;5.43;4.93;;;;;;;;;;4977965;28;20259;-49
2022/03/05 09:16:07;;;;;;;5.38;4.88;;;;;;;;;;4977819;28;20254;-49
2022/03/05 09:18:35;;;;;;;5.43;4.93;;;;;;;;;;4978074;28;20208;-49
2022/03/05 09:21:02;;;;;;;5.47;4.97;;;;;;;;;;4977915;28;20196;-49
2022/03/05 09:23:29;;;;;;;5.78;5.28;;;;;;;;;;4977682;28;20211;-49
2022/03/05 09:25:56;;;;;;;5.50;5.00;;;;;;;;;;4976893;28;20204;-49
2022/03/05 09:28:23;;;;;;;5.80;5.30;;;;;;;;;;4977960;28;20258;-49
2022/03/05 09:30:52;;;;;;;4.65;4.25;;;;;;;;;;4976879;28;20220;-49
2022/03/05 09:33:22;;;;;;;5.55;4.80;;;;;;;;;;4977329;28;20452;-49
2022/03/05 09:35:50;;;;;;;5.35;4.85;;;;;;;;;;4977358;28;20207;-49
2022/03/05 09:38:17;;;;;;;5.38;4.88;;;;;;;;;;4976697;28;20313;-49
2022/03/05 09:40:44;;;;;;;5.30;4.80;;;;;;;;;;4977256;28;20270;-49
2022/03/05 09:43:11;;;;;;;5.70;5.20;;;;;;;;;;4977115;28;20559;-49
2022/03/05 09:45:39;;;;;;;5.10;4.63;;;;;;;;;;4976248;28;20557;-49
2022/03/05 09:48:09;;;;;;;5.30;4.80;;;;;;;;;;4957698;29;20204;-49
2022/03/05 09:50:37;;;;;;;5.20;4.70;;;;;;;;;;4972598;28;20287;-49
2022/03/05 09:53:04;;;;;;;5.05;4.55;;;;;;;;;;4976537;28;20231;-49
2022/03/05 09:55:31;;;;;;;5.43;4.93;;;;;;;;;;4976020;28;20212;-49
2022/03/05 09:57:59;;;;;;;5.43;4.93;;;;;;;;;;4976492;28;20716;-49
2022/03/05 10:00:26;;;;;;;5.45;4.95;;;;;;;;;;4977071;28;20571;-49
2022/03/05 10:02:54;;;;;;;5.72;5.03;;;;;;;;;;4977480;28;20203;-49
2022/03/05 10:05:24;;;;;;;5.35;4.85;;;;;;;;;;4977275;28;20200;-49
2022/03/05 10:08:00;;;;;;;5.70;4.82;;;;;;;;;;4976850;28;20204;-49
2022/03/05 10:10:27;;;;;;;5.03;4.53;;;;;;;;;;4976961;28;20206;-49
2022/03/05 10:12:55;;;;;;;5.40;4.75;;;;;;;;;;4976600;28;20230;-49
2022/03/05 10:15:22;;;;;;;5.22;4.60;;;;;;;;;;4976549;28;20634;-49
2022/03/05 10:17:51;;;;;;;5.18;4.72;;;;;;;;;;4976817;28;20207;-49
2022/03/05 10:20:21;;;;;;;5.10;4.57;;;;;;;;;;4977517;28;20208;-50
2022/03/05 10:22:55;;;;;;;6.32;4.57;;;;;;;;;;4977232;28;20212;-49
2022/03/05 10:25:28;;;;;;;6.60;4.45;;;;;;;;;;4976055;28;20294;-49
2022/03/05 10:28:01;;;;;;;7.22;4.60;;;;;;;;;;4976090;28;20270;-49
2022/03/05 10:30:32;;;;;;;4.63;4.22;;;;;;;;;;4976833;28;20270;-49
2022/03/05 10:32:59;;;;;;;5.43;4.88;;;;;;;;;;4976520;28;20235;-49
2022/03/05 10:35:26;;;;;;;8.75;5.13;;;;;;;;;;4976005;28;20211;-49
2022/03/05 10:37:55;;;;;;;5.20;4.70;;;;;;;;;;4976636;28;20596;-50
2022/03/05 10:40:29;;;;;;;5.25;4.47;;;;;;;;;;4976024;28;20208;-49
2022/03/05 10:42:59;;;;;;;7.57;6.82;;;;;;;;;;4975678;28;20225;-49
2022/03/05 10:45:29;;;;;;;20.15;17.98;;;;;;;;;;4975486;28;20277;-49
2022/03/05 10:47:57;;;;;;;24.02;21.58;;;;;;;;;;4975544;28;20594;-49
2022/03/05 10:50:25;;;;;;;21.70;19.45;;;;;;;;;;4975525;28;20196;-49
2022/03/05 10:52:53;;;;;;;18.38;16.02;;;;;;;;;;4975695;28;20220;-49
2022/03/05 10:55:23;;;;;;;16.77;14.98;;;;;;;;;;4964408;28;20517;-49
2022/03/05 10:58:00;;;;;;;16.67;14.98;;;;;;;;;;4972430;28;20271;-49
2022/03/05 11:00:27;;;;;;;15.70;14.10;;;;;;;;;;4977521;28;20205;-49
2022/03/05 11:02:56;;;;;;;14.95;13.25;;;;;;;;;;4976237;28;20282;-50
2022/03/05 11:05:24;;;;;;;14.85;13.35;;;;;;;;;;4975977;28;20215;-49
2022/03/05 11:07:51;;;;;;;17.70;13.60;;;;;;;;;;4976233;28;20215;-49
2022/03/05 11:10:19;;;;;;;13.23;11.95;;;;;;;;;;4975849;28;20208;-49
2022/03/05 11:12:52;;;;;;;14.13;11.98;;;;;;;;;;4975991;28;20242;-49
2022/03/05 11:15:20;;;;;;;13.43;12.02;;;;;;;;;;4976320;28;20605;-49
2022/03/05 11:17:47;;;;;;;13.05;11.68;;;;;;;;;;4986876;28;20258;-49
2022/03/05 11:20:15;;;;;;;15.10;13.50;;;;;;;;;;4975933;28;20203;-49
2022/03/05 11:22:49;;;;;;;14.52;12.02;;;;;;;;;;4975782;28;20595;-50
2022/03/05 11:25:18;;;;;;;12.40;10.68;;;;;;;;;;4974836;28;20491;-49
2022/03/05 11:28:00;;;;;;;11.60;10.50;;;;;;;;;;4975097;28;20203;-49
2022/03/05 11:30:28;;;;;;;11.65;10.50;;;;;;;;;;4974757;28;20302;-49
2022/03/05 11:32:56;;;;;;;11.65;10.45;;;;;;;;;;4974341;28;20444;-49
2022/03/05 11:35:24;;;;;;;10.85;9.75;;;;;;;;;;4973687;28;20207;-49
2022/03/05 11:37:52;;;;;;;10.93;9.88;;;;;;;;;;4974912;28;20643;-49
2022/03/05 11:40:33;;;;;;;10.50;9.50;;;;;;;;;;4974429;28;20270;-49
2022/03/05 11:43:15;;;;;;;10.13;8.73;;;;;;;;;;4975102;28;20207;-49
2022/03/05 11:45:47;;;;;;;10.77;9.18;;;;;;;;;;4975406;28;20243;-49
2022/03/05 11:48:28;;;;;;;9.80;8.20;;;;;;;;;;4975284;28;20207;-49
2022/03/05 11:50:57;;;;;;;8.40;7.60;;;;;;;;;;4974995;28;20270;-50
2022/03/05 11:53:25;;;;;;;10.73;7.75;;;;;;;;;;4974589;28;20235;-49
2022/03/05 11:55:52;;;;;;;8.75;7.85;;;;;;;;;;4974916;28;20347;-50
2022/03/05 11:58:27;;;;;;;8.65;7.13;;;;;;;;;;4973801;28;20594;-49
2022/03/05 12:00:57;;;;;;;9.55;7.45;;;;;;;;;;4974709;28;20215;-49
2022/03/05 12:03:37;;;;;;;8.40;7.60;;;;;;;;;;4974876;28;20332;-49
2022/03/05 12:06:05;;;;;;;8.25;7.45;;;;;;;;;;4974680;28;20274;-50
2022/03/05 12:08:59;;;;;;;8.60;7.22;;;;;;;;;;4975114;28;20216;-49
2022/03/05 12:11:26;;;;;;;7.75;6.95;;;;;;;;;;4939740;28;20278;-49
2022/03/05 12:13:55;;;;;;;7.53;6.82;;;;;;;;;;4975357;28;20208;-49
2022/03/05 12:16:25;;;;;;;7.32;6.63;;;;;;;;;;4973863;28;20210;-49
2022/03/05 12:18:54;;;;;;;7.22;6.53;;;;;;;;;;4973650;28;20208;-49
2022/03/05 12:21:22;;;;;;;6.95;6.30;;;;;;;;;;4973809;28;20524;-49
2022/03/05 12:23:49;;;;;;;7.10;6.40;;;;;;;;;;4974171;28;20207;-50
2022/03/05 12:26:18;;;;;;;6.68;6.07;;;;;;;;;;4974169;28;20207;-49
2022/03/05 12:28:45;;;;;;;6.85;6.18;;;;;;;;;;4974960;28;20242;-49
2022/03/05 12:31:13;;;;;;;23.92;21.73;;;;;;;;;;4977613;28;20587;-49
2022/03/05 12:33:42;;;;;;;144.27;131.27;;;;;;;;;;4977400;28;20220;-49
2022/03/05 12:36:14;;;;;;;123.28;112.03;;;;;;;;;;4977811;28;20208;-49
2022/03/05 12:38:42;;;;;;;98.78;90.07;;;;;;;;;;4978238;28;20210;-49
2022/03/05 12:41:09;;;;;;;94.80;86.45;;;;;;;;;;4987197;28;20202;-49
2022/03/05 12:43:36;;;;;;;87.00;79.30;;;;;;;;;;4987889;28;20259;-49
2022/03/05 12:46:03;;;;;;;79.55;72.40;;;;;;;;;;4978176;28;20239;-49
2022/03/05 12:48:31;;;;;;;72.63;66.07;;;;;;;;;;4977711;28;20215;-49
2022/03/05 12:50:59;;;;;;;69.55;63.25;;;;;;;;;;4978167;28;20207;-50
2022/03/05 12:53:28;;;;;;;67.03;60.97;;;;;;;;;;4978294;28;20231;-49
2022/03/05 12:55:56;;;;;;;62.35;56.78;;;;;;;;;;4977931;28;20203;-49
2022/03/05 12:58:24;;;;;;;61.85;56.15;;;;;;;;;;4977657;28;20210;-49
2022/03/05 13:00:53;;;;;;;59.88;54.58;;;;;;;;;;4977490;28;20274;-49
2022/03/05 13:03:21;;;;;;;55.70;50.70;;;;;;;;;;4976260;28;20259;-49
2022/03/05 13:05:49;;;;;;;52.55;47.85;;;;;;;;;;4977456;28;20274;-50
2022/03/05 13:08:22;;;;;;;52.03;47.47;;;;;;;;;;4977254;28;20270;-49
2022/03/05 13:10:50;;;;;;;49.10;44.80;;;;;;;;;;4977033;28;20207;-49
2022/03/05 13:13:18;;;;;;;46.88;42.80;;;;;;;;;;4977909;28;20235;-50
2022/03/05 13:15:45;;;;;;;46.25;42.28;;;;;;;;;;4976681;28;20212;-49
2022/03/05 13:18:15;;;;;;;42.45;38.78;;;;;;;;;;4977258;28;20595;-49
2022/03/05 13:20:43;;;;;;;41.55;37.72;;;;;;;;;;4976071;28;20208;-49
2022/03/05 13:23:10;;;;;;;38.92;35.55;;;;;;;;;;4977161;28;20208;-49
2022/03/05 13:25:42;;;;;;;36.28;32.97;;;;;;;;;;4977105;28;20590;-49
2022/03/05 13:28:10;;;;;;;34.83;31.80;;;;;;;;;;4976562;28;20215;-50
2022/03/05 13:30:37;;;;;;;34.28;31.17;;;;;;;;;;4976960;28;20215;-49
2022/03/05 13:33:05;;;;;;;32.08;29.27;;;;;;;;;;4976598;28;20689;-50
2022/03/05 13:35:41;;;;;;;32.80;29.80;;;;;;;;;;4976432;28;20792;-49
2022/03/05 13:38:26;;;;;;;31.85;29.15;;;;;;;;;;4976487;28;20270;-49
2022/03/05 13:40:54;;;;;;;30.90;28.10;;;;;;;;;;4977123;28;20246;-49
2022/03/05 13:43:23;;;;;;;30.17;27.50;;;;;;;;;;4976423;28;20267;-49
2022/03/05 13:45:50;;;;;;;28.25;25.65;;;;;;;;;;4976756;28;20231;-49
2022/03/05 13:48:19;;;;;;;26.83;24.55;;;;;;;;;;4977533;28;20596;-49
2022/03/05 13:50:46;;;;;;;26.55;24.25;;;;;;;;;;4976842;28;20728;-50
2022/03/05 13:53:14;;;;;;;24.42;22.35;;;;;;;;;;4976612;28;20627;-49
2022/03/05 13:55:41;;;;;;;23.63;21.63;;;;;;;;;;4976870;28;20203;-49
2022/03/05 13:58:22;;;;;;;22.10;20.30;;;;;;;;;;4976588;28;20207;-49
2022/03/05 14:00:49;;;;;;;21.55;19.60;;;;;;;;;;4977027;28;20282;-49
2022/03/05 14:03:17;;;;;;;21.58;19.70;;;;;;;;;;4976560;28;20575;-49
2022/03/05 14:05:44;;;;;;;19.45;17.75;;;;;;;;;;4975877;28;20208;-49
2022/03/05 14:08:12;;;;;;;18.80;17.20;;;;;;;;;;4976840;28;20230;-49
2022/03/05 14:10:40;;;;;;;18.15;16.58;;;;;;;;;;4976775;28;20208;-49
2022/03/05 14:13:15;;;;;;;17.30;15.77;;;;;;;;;;4975964;28;20358;-49
2022/03/05 14:15:49;;;;;;;15.60;14.20;;;;;;;;;;4975683;28;20227;-49
2022/03/05 14:18:16;;;;;;;16.05;14.68;;;;;;;;;;4974873;28;20239;-49
2022/03/05 14:20:44;;;;;;;15.73;14.38;;;;;;;;;;4975043;28;20282;-49
2022/03/05 14:23:14;;;;;;;15.13;13.82;;;;;;;;;;4974914;28;20697;-50
2022/03/05 14:25:42;;;;;;;14.60;13.38;;;;;;;;;;4975181;28;20231;-49
2022/03/05 14:28:12;;;;;;;14.88;13.57;;;;;;;;;;4974196;28;20253;-49
2022/03/05 14:30:39;;;;;;;13.40;12.25;;;;;;;;;;4974012;28;20227;-49
2022/03/05 14:33:08;;;;;;;14.38;13.07;;;;;;;;;;4973889;28;20243;-50
2022/03/05 14:35:35;;;;;;;12.82;11.73;;;;;;;;;;4974227;28;20825;-50
2022/03/05 14:38:03;;;;;;;13.02;12.02;;;;;;;;;;4974485;28;20227;-49
2022/03/05 14:40:31;;;;;;;12.25;11.15;;;;;;;;;;4974294;28;20294;-50
2022/03/05 14:42:59;;;;;;;12.30;11.30;;;;;;;;;;4973727;28;20303;-49
2022/03/05 14:45:27;;;;;;;12.18;11.07;;;;;;;;;;4973967;28;20286;-49
2022/03/05 14:47:54;;;;;;;12.27;11.10;;;;;;;;;;4974033;28;20231;-49